Terminal Aerodrome Forecast
Issued by NWS

Home | Current Version | Previous Version | Text Only | Print | Product List | Glossary On
Versions: 1 2 3 4 5 6 7 8 9 10 11 12 13 14 15 16 17 18 19 20 21 22 23
000
FTUS41 KALY 072355
TAFPSF
TAF
KPSF 072355Z 0800/0824 22006KT P6SM SCT050 SCT250
     FM080400 23006KT 6SM BR BKN050 BKN100
     FM080700 24007KT 6SM BR SCT025 OVC040
      TEMPO 0808/0811 3SM -SHRA BKN015 OVC035
     FM081200 28007KT 6SM BR VCSH BKN025 OVC040
     FM081600 31008KT P6SM SCT025 BKN040
     FM082100 32009KT P6SM SCT050 SCT250
     FM082200 32007KT P6SM SKC=

USA.gov is the U.S. government's official web portal to all federal, state and local government web resources and services.